Historyczne dane pomiarowe

Dodano dane terminowe – wersja testowa.

Dane z okresu 1951-2019

Wersja bazy: 1.34 [2019-03-16, lista zmian], aktualizacja planowana na 2019-04-15

Dane meteo z obszaru Polski uzyskane na podstawie danych udostępnionych przez Instytut Meteorologii i Gospodarki Wodnej – Państwowy Instytut Badawczy.

 

Wybierz Datę:    

       

TemperaturaWilgotnośćWiatrCiśnienieOpadyŚniegCzas trwania zjawisk
 Stacja t tx tn tng RH VA  wxwx mslp ppp RRR   cm mm wxwxwxwxwxwxwx
1962-02-25 -5.2 -3.0-10.6- 88.5- 8.0 5.0---- 8.1-- 27---------
1962-02-26 -3.6 -2.7 -4.6- 89.0- 8.0 2.3---- 0.0-- 34---------
1962-02-27 -6.7 -3.7 -9.4- 85.3- 7.7 3.3---- 0.0-- 33---------
1962-02-28 -6.9 -4.5-14.8- 88.0- 8.0 2.0---- 0.0-- 33---------
1962-03-01 -4.7 -2.7 -5.7- 88.0- 8.0 2.0---- 0.0-- 32---------
1962-03-02 -6.7 -2.1 -9.8- 84.5- 7.7 1.0---- 0.0-- 30---------
1962-03-03 -2.6 1.6 -9.1- 82.8- 5.7 1.7---- 0.0-- 28---------
1962-03-04 1.5 4.6 -5.9- 92.0- 6.7 2.3---- 3.0-- 25---------
1962-03-05 5.6 11.1 1.2- 91.0- 7.3 1.0---- 1.2-- 14---------
1962-03-06 2.1 9.4 -0.1- 84.0- 7.3 6.7---- 0.0-- 6---------
1962-03-07 -1.7 0.4 -2.9- 77.8- 8.0 5.7---- 0.0------------
1962-03-08 -2.7 -0.5 -6.1- 81.5- 6.7 2.3---- 0.0-- 1---------
1962-03-09 -3.1 0.3 -4.1- 78.5- 5.0 2.7---- 0.0------------
1962-03-10 -2.8 0.9 -7.4- 77.8- 5.3 8.0---- 0.6------------
1962-03-11 0.9 5.2 -2.8- 85.8- 6.3 4.7---- 0.0------------
1962-03-12 0.6 2.0 -0.2- 94.8- 8.0 2.7---- 7.4------------
1962-03-13 -3.7 0.4 -5.9- 89.8- 6.3 8.3---- 1.7-- 7---------
1962-03-14 -8.3 -3.8-11.2- 81.5- 4.0 5.0---- 0.0-- 12---------
1962-03-15 -7.0 -4.5-11.8- 89.8- 8.0 2.0---- 0.5-- 12---------
1962-03-16 -6.8 -6.0 -7.7- 90.5- 8.0 9.3---- 39.4-- 12---------
1962-03-17 -6.0 -4.9 -8.3- 93.5- 8.0 7.0---- 17.3-- 21---------
1962-03-18 -5.9 -2.7 -7.9- 80.5- 4.3 5.3---- 0.0-- 36---------
1962-03-19 -5.7 -2.3-10.6- 82.0- 4.7 1.3---- 0.0-- 36---------
1962-03-20 -6.7 -0.5-11.7- 80.5- 4.3 0.7---- 0.0-- 33---------
1962-03-21 -7.7 -1.6-16.1- 83.3- 2.0 1.3---- 0.0-- 27---------
1962-03-22 -3.5 -1.2-10.2- 92.3- 8.0 3.0---- 6.2-- 22---------
1962-03-23 -0.6 1.3 -2.7- 93.3- 8.0 1.7---- 7.1-- 26---------
1962-03-24 -1.8 -0.3 -2.3- 93.3- 8.0 2.0---- 0.4-- 30---------
1962-03-25 -6.5 -1.1-11.2- 83.0- 2.0 1.0---- 0.0-- 28---------
1962-03-26 -7.4 1.6-19.6- 74.5- 2.7 1.3---- 0.0-- 25---------
293.1 ms

 

Źródłem pochodzenia danych jest Instytut Meteorologii i Gospodarki Wodnej – Państwowy Instytut Badawczy. Dane Instytutu Meteorologii i Gospodarki Wodnej – Państwowego Instytutu Badawczego zostały przetworzone.

Dane źródłowe można odnaleźć na stronie https://dane.imgw.pl